createdAt,value
2022-11-21T00:01:28.657Z,97138.53
2022-11-21T00:03:55.147Z,97141.38
2022-11-21T00:06:23.465Z,97129.69
2022-11-21T00:08:50.597Z,97139.38
2022-11-21T00:11:17.376Z,97143.53
2022-11-21T00:13:44.438Z,97134.81
2022-11-21T00:16:15.509Z,97147.38
2022-11-21T00:18:44.010Z,97145.38
2022-11-21T00:21:17.733Z,97137.69
2022-11-21T00:23:46.431Z,97139.06
2022-11-21T00:26:16.051Z,97149.69
2022-11-21T00:28:42.548Z,97138.44
2022-11-21T00:31:09.918Z,97150.94
2022-11-21T00:33:38.889Z,97151.50
2022-11-21T00:36:09.799Z,97163.03
2022-11-21T00:38:37.118Z,97157.81
2022-11-21T00:41:03.847Z,97161.06
2022-11-21T00:43:30.304Z,97167.94
2022-11-21T00:45:56.830Z,97156.19
2022-11-21T00:48:23.331Z,97148.06
2022-11-21T00:50:49.950Z,97156.78
2022-11-21T00:53:16.475Z,97144.53
2022-11-21T00:55:42.971Z,97151.88
2022-11-21T00:58:09.413Z,97153.47
2022-11-21T01:00:35.975Z,97149.47
2022-11-21T01:03:02.534Z,97156.38
2022-11-21T01:05:28.968Z,97145.50
2022-11-21T01:07:55.442Z,97147.56
2022-11-21T01:10:21.944Z,97160.34
2022-11-21T01:12:48.393Z,97174.81
2022-11-21T01:15:15.635Z,97177.97
2022-11-21T01:17:42.353Z,97176.81
2022-11-21T01:20:09.697Z,97175.44
2022-11-21T01:22:36.257Z,97165.19
2022-11-21T01:25:03.457Z,97178.59
2022-11-21T01:27:29.897Z,97169.41
2022-11-21T01:29:56.339Z,97170.97
2022-11-21T01:32:22.760Z,97180.50
2022-11-21T01:34:49.233Z,97175.00
2022-11-21T01:37:15.693Z,97180.28
2022-11-21T01:39:42.146Z,97174.53
2022-11-21T01:42:12.553Z,97186.00
2022-11-21T01:45:44.114Z,97182.91
2022-11-21T01:48:10.698Z,97180.78
2022-11-21T01:50:37.652Z,97183.81
2022-11-21T01:53:04.315Z,97186.81
2022-11-21T01:55:31.412Z,97192.59
2022-11-21T01:57:57.930Z,97189.31
2022-11-21T02:00:31.876Z,97191.84
2022-11-21T02:03:07.775Z,97200.09
2022-11-21T02:05:38.793Z,97196.25
2022-11-21T02:08:17.797Z,97197.63
2022-11-21T02:11:00.801Z,97201.91
2022-11-21T02:13:27.935Z,97210.53
2022-11-21T02:15:55.271Z,97196.53
2022-11-21T02:18:21.697Z,97201.06
2022-11-21T02:20:58.740Z,97203.84
2022-11-21T02:23:41.572Z,97204.56
2022-11-21T02:26:09.053Z,97209.03
2022-11-21T02:28:35.544Z,97201.31
2022-11-21T02:31:02.028Z,97205.28
2022-11-21T02:33:28.507Z,97201.09
2022-11-21T02:36:00.822Z,97202.28
2022-11-21T02:38:38.803Z,97202.06
2022-11-21T02:41:26.670Z,97201.59
2022-11-21T02:44:03.069Z,97206.94
2022-11-21T02:46:29.576Z,97206.34
2022-11-21T02:48:58.379Z,97208.75
2022-11-21T02:51:24.921Z,97199.94
2022-11-21T02:53:51.392Z,97208.25
2022-11-21T02:56:17.860Z,97209.44
2022-11-21T02:58:44.786Z,97226.16
2022-11-21T03:01:11.427Z,97216.34
2022-11-21T03:03:38.048Z,97229.59
2022-11-21T03:06:04.636Z,97216.41
2022-11-21T03:08:31.088Z,97212.97
2022-11-21T03:10:57.551Z,97219.94
2022-11-21T03:13:23.992Z,97219.88
2022-11-21T03:15:50.511Z,97224.47
2022-11-21T03:18:17.014Z,97236.13
2022-11-21T03:20:43.442Z,97224.41
2022-11-21T03:23:09.917Z,97227.72
2022-11-21T03:25:36.369Z,97230.81
2022-11-21T03:28:02.964Z,97228.47
2022-11-21T03:30:29.449Z,97225.84
2022-11-21T03:32:57.547Z,97219.94
2022-11-21T03:35:24.948Z,97226.19
2022-11-21T03:37:51.399Z,97223.28
2022-11-21T03:40:17.964Z,97228.81
2022-11-21T03:42:44.600Z,97232.69
2022-11-21T03:45:11.277Z,97226.63
2022-11-21T03:47:37.785Z,97234.13
2022-11-21T03:50:04.660Z,97229.97
2022-11-21T03:52:31.101Z,97223.94
2022-11-21T03:54:57.581Z,97230.31
2022-11-21T03:57:24.079Z,97235.75
2022-11-21T03:59:50.517Z,97238.81
2022-11-21T04:02:17.001Z,97236.13
2022-11-21T04:04:43.437Z,97229.09
2022-11-21T04:07:09.947Z,97228.56
2022-11-21T04:09:36.469Z,97226.75
2022-11-21T04:12:07.431Z,97224.22
2022-11-21T04:14:34.243Z,97232.59
2022-11-21T04:17:00.660Z,97222.56
2022-11-21T04:19:27.140Z,97239.47
2022-11-21T04:21:53.656Z,97235.28
2022-11-21T04:24:20.132Z,97224.78
2022-11-21T04:26:46.542Z,97232.38
2022-11-21T04:29:13.037Z,97232.13
2022-11-21T04:31:39.474Z,97240.91
2022-11-21T04:34:06.354Z,97243.72
2022-11-21T04:36:32.830Z,97240.78
2022-11-21T04:38:59.320Z,97235.88
2022-11-21T04:41:26.585Z,97237.31
2022-11-21T04:43:53.006Z,97244.81
2022-11-21T04:46:19.436Z,97238.63
2022-11-21T04:48:45.937Z,97254.09
2022-11-21T04:51:12.428Z,97252.31
2022-11-21T04:53:42.927Z,97250.75
2022-11-21T04:56:10.532Z,97244.19
2022-11-21T04:58:36.994Z,97251.16
2022-11-21T05:01:08.660Z,97241.75
2022-11-21T05:03:36.463Z,97247.19
2022-11-21T05:06:03.477Z,97247.00
2022-11-21T05:08:29.992Z,97241.59
2022-11-21T05:11:14.984Z,97243.81
2022-11-21T05:13:41.440Z,97249.44
2022-11-21T05:16:07.913Z,97249.53
2022-11-21T05:18:34.385Z,97238.66
2022-11-21T05:21:02.009Z,97242.22
2022-11-21T05:23:28.492Z,97245.75
2022-11-21T05:25:54.908Z,97243.81
2022-11-21T05:28:21.488Z,97251.53
2022-11-21T05:30:47.978Z,97243.38
2022-11-21T05:33:14.539Z,97250.34
2022-11-21T05:35:43.435Z,97250.38
2022-11-21T05:38:10.462Z,97251.94
2022-11-21T05:40:37.033Z,97248.72
2022-11-21T05:43:21.915Z,97255.44
2022-11-21T05:45:52.149Z,97253.25
2022-11-21T05:48:18.859Z,97249.19
2022-11-21T05:50:51.870Z,97252.97
2022-11-21T05:53:18.839Z,97244.22
2022-11-21T05:55:45.894Z,97249.13
2022-11-21T05:58:12.988Z,97242.31
2022-11-21T06:00:39.979Z,97250.78
2022-11-21T06:03:27.573Z,97243.41
2022-11-21T06:06:00.943Z,97236.13
2022-11-21T06:08:30.567Z,97238.66
2022-11-21T06:10:57.328Z,97234.84
2022-11-21T06:13:23.904Z,97251.94
2022-11-21T06:16:15.940Z,97244.53
2022-11-21T06:18:46.306Z,97247.81
2022-11-21T06:21:15.628Z,97253.06
2022-11-21T06:23:43.152Z,97244.16
2022-11-21T06:26:16.753Z,97255.00
2022-11-21T06:28:44.938Z,97256.75
2022-11-21T06:31:14.827Z,97249.06
2022-11-21T06:33:43.140Z,97245.22
2022-11-21T06:36:13.089Z,97251.66
2022-11-21T06:38:40.001Z,97248.66
2022-11-21T06:41:11.797Z,97246.88
2022-11-21T06:43:38.667Z,97249.06
2022-11-21T06:46:05.133Z,97249.53
2022-11-21T06:48:33.239Z,97246.44
2022-11-21T06:51:17.592Z,97249.59
2022-11-21T06:53:44.770Z,97237.56
2022-11-21T06:56:11.325Z,97236.66
2022-11-21T06:58:37.816Z,97243.81
2022-11-21T07:01:10.377Z,97252.50
2022-11-21T07:03:37.295Z,97248.09
2022-11-21T07:06:04.852Z,97245.25
2022-11-21T07:08:33.700Z,97250.94
2022-11-21T07:13:54.128Z,97250.94
2022-11-21T07:16:20.692Z,97249.19
2022-11-21T07:18:47.216Z,97259.19
2022-11-21T07:21:13.740Z,97262.63
2022-11-21T07:23:40.185Z,97257.19
2022-11-21T07:26:10.189Z,97254.84
2022-11-21T07:28:36.816Z,97262.25
2022-11-21T07:31:08.524Z,97261.78
2022-11-21T07:33:38.376Z,97255.84
2022-11-21T07:36:05.280Z,97256.91
2022-11-21T07:38:31.695Z,97257.03
2022-11-21T07:40:58.358Z,97262.13
2022-11-21T07:43:24.968Z,97258.97
2022-11-21T07:45:51.448Z,97265.75
2022-11-21T07:48:17.942Z,97261.28
2022-11-21T07:50:44.396Z,97258.25
2022-11-21T07:53:11.569Z,97256.56
2022-11-21T07:55:40.799Z,97257.03
2022-11-21T07:58:15.375Z,97260.34
2022-11-21T08:00:42.997Z,97260.59
2022-11-21T08:03:12.083Z,97258.59
2022-11-21T08:05:44.265Z,97254.66
2022-11-21T08:08:15.229Z,97251.31
2022-11-21T08:10:46.882Z,97257.28
2022-11-21T08:13:14.581Z,97258.25
2022-11-21T08:15:41.488Z,97256.66
2022-11-21T08:18:14.554Z,97259.53
2022-11-21T08:20:42.733Z,97247.59
2022-11-21T08:23:10.725Z,97251.19
2022-11-21T08:25:39.700Z,97249.53
2022-11-21T08:28:08.208Z,97250.25
2022-11-21T08:30:36.162Z,97251.00
2022-11-21T08:33:04.241Z,97251.31
2022-11-21T08:35:31.002Z,97257.16
2022-11-21T08:37:59.262Z,97256.19
2022-11-21T08:40:28.275Z,97251.31
2022-11-21T08:42:59.164Z,97246.47
2022-11-21T08:45:28.468Z,97251.41
2022-11-21T08:47:55.666Z,97252.25
2022-11-21T08:50:23.691Z,97256.91
2022-11-21T08:52:50.628Z,97247.50
2022-11-21T08:55:17.196Z,97234.09
2022-11-21T08:57:43.921Z,97226.94
2022-11-21T09:00:14.617Z,97235.16
2022-11-21T09:02:41.182Z,97228.88
2022-11-21T09:05:09.254Z,97228.25
2022-11-21T09:07:36.568Z,97231.56
2022-11-21T09:10:04.031Z,97234.44
2022-11-21T09:12:31.437Z,97245.31
2022-11-21T09:15:16.654Z,97234.69
2022-11-21T09:18:01.920Z,97237.94
2022-11-21T09:20:28.519Z,97249.22
2022-11-21T09:22:55.046Z,97240.78
2022-11-21T09:25:21.540Z,97244.13
2022-11-21T09:27:48.020Z,97239.09
2022-11-21T09:30:15.768Z,97242.81
2022-11-21T09:32:42.302Z,97242.53
2022-11-21T09:35:09.181Z,97246.50
2022-11-21T09:37:38.805Z,97246.38
2022-11-21T09:40:06.267Z,97243.38
2022-11-21T09:43:02.916Z,97248.31
2022-11-21T09:45:39.909Z,97249.59
2022-11-21T09:48:15.877Z,97238.91
2022-11-21T09:50:54.413Z,97240.78
2022-11-21T09:53:30.099Z,97239.13
2022-11-21T09:56:06.287Z,97234.63
2022-11-21T09:58:43.155Z,97235.22
2022-11-21T10:01:14.858Z,97228.66
2022-11-21T10:03:47.362Z,97227.34
2022-11-21T10:06:25.206Z,97227.69
2022-11-21T10:09:31.933Z,97228.78
2022-11-21T10:12:37.211Z,97218.88
2022-11-21T10:15:26.853Z,97219.84
2022-11-21T10:18:28.202Z,97205.31
2022-11-21T10:21:08.029Z,97212.44
2022-11-21T10:23:59.569Z,97207.78
2022-11-21T10:26:53.413Z,97205.34
2022-11-21T10:29:38.557Z,97209.59
2022-11-21T10:32:20.989Z,97193.88
2022-11-21T10:34:53.215Z,97188.03
2022-11-21T10:37:38.309Z,97192.19
2022-11-21T10:40:23.798Z,97185.25
2022-11-21T10:43:22.103Z,97182.44
2022-11-21T10:45:50.581Z,97180.41
2022-11-21T10:48:17.102Z,97175.28
2022-11-21T10:51:20.209Z,97167.28
2022-11-21T10:54:08.051Z,97165.84
2022-11-21T10:56:37.111Z,97161.00
2022-11-21T10:59:28.670Z,97149.06
2022-11-21T11:02:19.492Z,97154.31
2022-11-21T11:04:52.036Z,97148.28
2022-11-21T11:07:28.159Z,97139.41
2022-11-21T11:10:27.491Z,97134.41
2022-11-21T11:16:18.332Z,97129.34
2022-11-21T11:18:55.352Z,97131.75
2022-11-21T11:21:25.292Z,97122.78
2022-11-21T11:24:05.543Z,97125.28
2022-11-21T11:26:32.486Z,97116.47
2022-11-21T11:29:09.303Z,97127.25
2022-11-21T11:31:54.540Z,97117.53
2022-11-21T11:34:21.960Z,97116.41
2022-11-21T11:37:01.998Z,97110.69
2022-11-21T11:39:41.015Z,97101.59
2022-11-21T11:42:51.079Z,97098.59
2022-11-21T11:46:16.008Z,97094.22
2022-11-21T11:49:16.693Z,97093.91
2022-11-21T11:51:48.903Z,97088.50
2022-11-21T11:54:22.901Z,97091.16
2022-11-21T11:56:50.329Z,97089.81
2022-11-21T11:59:26.082Z,97092.09
2022-11-21T12:02:22.041Z,97073.84
2022-11-21T12:05:02.814Z,97073.97
2022-11-21T12:08:39.015Z,97068.59
2022-11-21T12:11:25.235Z,97059.19
2022-11-21T12:13:57.296Z,97055.03
2022-11-21T12:16:26.849Z,97045.81
2022-11-21T12:19:07.816Z,97045.34
2022-11-21T12:21:34.344Z,97040.16
2022-11-21T12:24:03.985Z,97036.06
2022-11-21T12:27:05.510Z,97038.06
2022-11-21T12:30:07.977Z,97027.56
2022-11-21T12:33:08.479Z,97026.72
2022-11-21T12:36:17.932Z,97028.88
2022-11-21T12:39:00.107Z,97028.59
2022-11-21T12:42:10.007Z,97028.34
2022-11-21T12:45:01.740Z,97024.50
2022-11-21T12:47:57.469Z,97027.22
2022-11-21T12:51:20.582Z,97022.88
2022-11-21T12:54:31.487Z,97015.53
2022-11-21T12:57:11.558Z,97012.56
2022-11-21T13:00:08.953Z,97014.94
2022-11-21T13:03:00.895Z,97001.75
2022-11-21T13:05:32.561Z,96996.00
2022-11-21T13:08:14.298Z,96988.84
2022-11-21T13:11:40.434Z,96991.34
2022-11-21T13:14:29.001Z,96987.75
2022-11-21T13:17:14.748Z,96981.63
2022-11-21T13:20:01.811Z,96974.75
2022-11-21T13:22:37.181Z,96972.03
2022-11-21T13:25:09.020Z,96969.44
2022-11-21T13:27:41.744Z,96964.06
2022-11-21T13:30:08.810Z,96966.44
2022-11-21T13:32:49.805Z,96957.22
2022-11-21T13:35:16.287Z,96955.72
2022-11-21T13:38:06.270Z,96956.81
2022-11-21T13:41:00.432Z,96949.69
2022-11-21T13:43:35.753Z,96952.53
2022-11-21T13:46:02.561Z,96948.25
2022-11-21T13:48:31.820Z,96935.25
2022-11-21T13:51:28.752Z,96933.47
2022-11-21T13:54:24.981Z,96932.28
2022-11-21T13:57:41.831Z,96935.78
2022-11-21T14:00:23.549Z,96921.72
2022-11-21T14:03:35.701Z,96912.44
2022-11-21T14:06:32.522Z,96905.28
2022-11-21T14:09:36.224Z,96899.84
2022-11-21T14:12:19.496Z,96895.09
2022-11-21T14:15:20.241Z,96895.50
2022-11-21T14:18:01.183Z,96903.41
2022-11-21T14:20:54.340Z,96894.28
2022-11-21T14:23:24.302Z,96892.81
2022-11-21T14:26:03.612Z,96881.03
2022-11-21T14:28:35.037Z,96881.97
2022-11-21T14:31:10.564Z,96877.84
2022-11-21T14:33:42.218Z,96882.03
2022-11-21T14:36:24.325Z,96872.41
2022-11-21T14:39:21.071Z,96858.97
2022-11-21T14:41:52.594Z,96866.59
2022-11-21T14:44:21.891Z,96856.28
2022-11-21T14:46:50.581Z,96858.06
2022-11-21T14:49:16.930Z,96848.56
2022-11-21T14:51:48.208Z,96844.75
2022-11-21T14:54:24.356Z,96849.03
2022-11-21T14:57:20.769Z,96846.22
2022-11-21T14:59:49.495Z,96837.31
2022-11-21T15:02:23.863Z,96836.94
2022-11-21T15:04:55.219Z,96831.34
2022-11-21T15:07:36.261Z,96829.94
2022-11-21T15:13:12.397Z,96825.59
2022-11-21T15:15:47.773Z,96829.72
2022-11-21T15:18:27.845Z,96823.44
2022-11-21T15:21:00.117Z,96818.31
2022-11-21T15:23:28.767Z,96816.78
2022-11-21T15:26:00.700Z,96803.44
2022-11-21T15:28:29.809Z,96791.31
2022-11-21T15:31:16.291Z,96777.09
2022-11-21T15:34:19.589Z,96775.28
2022-11-21T15:36:42.857Z,96773.97
2022-11-21T15:39:22.220Z,96762.41
2022-11-21T15:41:48.694Z,96747.34
2022-11-21T15:44:22.099Z,96737.09
2022-11-21T15:46:52.146Z,96742.44
2022-11-21T15:49:32.575Z,96737.28
2022-11-21T15:52:09.258Z,96733.22
2022-11-21T15:54:36.385Z,96730.59
2022-11-21T15:57:02.891Z,96718.94
2022-11-21T15:59:29.537Z,96714.63
2022-11-21T16:01:56.152Z,96711.34
2022-11-21T16:04:25.838Z,96714.50
2022-11-21T16:06:55.784Z,96706.63
2022-11-21T16:09:22.291Z,96708.22
2022-11-21T16:11:48.942Z,96698.75
2022-11-21T16:14:18.432Z,96696.00
2022-11-21T16:16:47.564Z,96695.38
2022-11-21T16:19:15.543Z,96684.47
2022-11-21T16:21:42.676Z,96679.63
2022-11-21T16:24:09.238Z,96675.63
2022-11-21T16:26:35.777Z,96663.56
2022-11-21T16:29:06.248Z,96661.16
2022-11-21T16:31:33.250Z,96650.25
2022-11-21T16:34:00.585Z,96648.13
2022-11-21T16:36:32.368Z,96641.31
2022-11-21T16:39:07.776Z,96637.84
2022-11-21T16:41:36.842Z,96624.22
2022-11-21T16:44:03.464Z,96618.31
2022-11-21T16:46:29.933Z,96610.41
2022-11-21T16:49:03.341Z,96605.16
2022-11-21T16:51:30.744Z,96597.00
2022-11-21T16:54:01.595Z,96605.09
2022-11-21T16:56:30.804Z,96602.25
2022-11-21T16:58:57.282Z,96603.94
2022-11-21T17:01:26.905Z,96600.72
2022-11-21T17:03:53.699Z,96600.47
2022-11-21T17:06:24.442Z,96603.66
2022-11-21T17:08:51.086Z,96601.00
2022-11-21T17:11:22.944Z,96595.88
2022-11-21T17:13:51.189Z,96603.63
2022-11-21T17:16:20.821Z,96610.47
2022-11-21T17:18:48.365Z,96603.19
2022-11-21T17:21:16.590Z,96606.53
2022-11-21T17:23:45.477Z,96612.91
2022-11-21T17:26:16.063Z,96607.94
2022-11-21T17:28:45.872Z,96587.53
2022-11-21T17:31:15.861Z,96581.13
2022-11-21T17:33:43.641Z,96573.25
2022-11-21T17:36:14.895Z,96564.78
2022-11-21T17:38:42.922Z,96553.63
2022-11-21T17:41:12.465Z,96552.81
2022-11-21T17:43:39.387Z,96537.78
2022-11-21T17:46:13.792Z,96534.00
2022-11-21T17:48:41.167Z,96530.69
2022-11-21T17:51:14.613Z,96520.97
2022-11-21T17:53:44.438Z,96527.63
2022-11-21T17:56:14.638Z,96525.69
2022-11-21T17:58:41.517Z,96511.72
2022-11-21T18:01:12.220Z,96497.75
2022-11-21T18:03:39.440Z,96485.28
2022-11-21T18:06:09.345Z,96483.00
2022-11-21T18:08:39.646Z,96475.19
2022-11-21T18:11:10.125Z,96461.28
2022-11-21T18:13:36.965Z,96472.78
2022-11-21T18:16:07.780Z,96468.75
2022-11-21T18:18:36.194Z,96466.66
2022-11-21T18:21:21.292Z,96479.47
2022-11-21T18:23:48.482Z,96493.72
2022-11-21T18:26:24.636Z,96517.88
2022-11-21T18:29:20.210Z,96527.25
2022-11-21T18:31:43.873Z,96528.91
2022-11-21T18:34:12.358Z,96528.78
2022-11-21T18:36:38.956Z,96540.91
2022-11-21T18:39:12.192Z,96543.38
2022-11-21T18:41:40.444Z,96544.44
2022-11-21T18:44:07.045Z,96537.56
2022-11-21T18:46:36.881Z,96555.09
2022-11-21T18:49:07.994Z,96562.94
2022-11-21T18:51:36.725Z,96561.41
2022-11-21T18:54:07.762Z,96556.88
2022-11-21T18:56:35.997Z,96551.56
2022-11-21T18:59:03.840Z,96543.50
2022-11-21T19:01:31.675Z,96550.69
2022-11-21T19:03:58.776Z,96556.78
2022-11-21T19:06:27.617Z,96561.41
2022-11-21T19:08:57.021Z,96552.03
2022-11-21T19:11:27.341Z,96545.97
2022-11-21T19:13:55.957Z,96538.97
2022-11-21T19:16:26.171Z,96527.03
2022-11-21T19:21:42.238Z,96510.78
2022-11-21T19:24:14.512Z,96504.94
2022-11-21T19:26:41.885Z,96503.25
2022-11-21T19:29:09.182Z,96504.56
2022-11-21T19:31:40.701Z,96496.97
2022-11-21T19:34:11.158Z,96493.63
2022-11-21T19:36:39.297Z,96488.00
2022-11-21T19:39:05.767Z,96492.38
2022-11-21T19:41:32.337Z,96490.97
2022-11-21T19:44:01.696Z,96481.97
2022-11-21T19:46:32.329Z,96485.06
2022-11-21T19:49:00.123Z,96479.56
2022-11-21T19:51:37.227Z,96469.88
2022-11-21T19:54:06.239Z,96463.94
2022-11-21T19:56:33.741Z,96462.28
2022-11-21T19:59:00.473Z,96456.63
2022-11-21T20:01:30.259Z,96458.88
2022-11-21T20:04:00.754Z,96460.53
2022-11-21T20:06:36.725Z,96457.81
2022-11-21T20:09:10.154Z,96449.03
2022-11-21T20:11:39.760Z,96438.78
2022-11-21T20:14:07.143Z,96442.00
2022-11-21T20:16:43.595Z,96437.59
2022-11-21T20:19:14.715Z,96440.56
2022-11-21T20:21:43.372Z,96432.88
2022-11-21T20:24:12.027Z,96428.78
2022-11-21T20:26:39.360Z,96424.91
2022-11-21T20:29:06.575Z,96414.50
2022-11-21T20:31:36.983Z,96413.81
2022-11-21T20:34:07.874Z,96417.47
2022-11-21T20:36:36.652Z,96404.41
2022-11-21T20:39:18.689Z,96411.47
2022-11-21T20:41:47.131Z,96411.72
2022-11-21T20:45:25.773Z,96398.75
2022-11-21T20:47:07.597Z,96391.25
2022-11-21T20:49:34.855Z,96392.41
2022-11-21T20:53:20.634Z,96381.69
2022-11-21T20:54:48.157Z,96374.44
2022-11-21T20:57:15.601Z,96373.84
2022-11-21T20:59:42.897Z,96370.19
2022-11-21T21:02:14.043Z,96361.81
2022-11-21T21:04:41.018Z,96347.22
2022-11-21T21:07:07.568Z,96358.78
2022-11-21T21:09:34.104Z,96344.25
2022-11-21T21:12:00.678Z,96345.66
2022-11-21T21:14:27.154Z,96339.03
2022-11-21T21:16:53.700Z,96335.47
2022-11-21T21:19:24.158Z,96333.09
2022-11-21T21:21:50.651Z,96325.00
2022-11-21T21:24:17.352Z,96338.50
2022-11-21T21:26:48.979Z,96324.25
2022-11-21T21:29:20.298Z,96332.22
2022-11-21T21:31:51.556Z,96337.69
2022-11-21T21:34:21.046Z,96333.63
2022-11-21T21:36:48.228Z,96333.88
2022-11-21T21:39:14.720Z,96327.09
2022-11-21T21:41:44.314Z,96334.69
2022-11-21T21:44:10.799Z,96334.44
2022-11-21T21:46:37.314Z,96332.25
2022-11-21T21:49:03.742Z,96334.63
2022-11-21T21:51:31.415Z,96326.78
2022-11-21T21:53:59.420Z,96329.97
2022-11-21T21:56:28.517Z,96329.78
2022-11-21T21:58:57.806Z,96329.78
2022-11-21T22:01:27.892Z,96330.78
2022-11-21T22:03:58.602Z,96325.81
2022-11-21T22:06:26.056Z,96335.91
2022-11-21T22:08:55.109Z,96335.25
2022-11-21T22:11:25.689Z,96327.09
2022-11-21T22:13:57.317Z,96325.25
2022-11-21T22:16:25.070Z,96329.19
2022-11-21T22:18:52.241Z,96324.97
2022-11-21T22:21:24.548Z,96324.44
2022-11-21T22:24:17.669Z,96317.63
2022-11-21T22:26:38.121Z,96323.25
2022-11-21T22:29:04.800Z,96327.97
2022-11-21T22:31:31.590Z,96328.66
2022-11-21T22:33:58.452Z,96319.56
2022-11-21T22:36:25.386Z,96309.66
2022-11-21T22:38:56.436Z,96312.09
2022-11-21T22:41:27.136Z,96315.47
2022-11-21T22:43:59.423Z,96317.41
2022-11-21T22:46:30.589Z,96315.47
2022-11-21T22:48:57.852Z,96305.28
2022-11-21T22:51:31.435Z,96309.06
2022-11-21T22:53:58.088Z,96310.03
2022-11-21T22:56:25.835Z,96305.94
2022-11-21T22:58:53.439Z,96307.59
2022-11-21T23:01:23.853Z,96303.97
2022-11-21T23:03:51.469Z,96299.69
2022-11-21T23:06:21.855Z,96297.16
2022-11-21T23:08:48.817Z,96295.59
2022-11-21T23:11:19.254Z,96293.44
2022-11-21T23:13:47.724Z,96291.25
2022-11-21T23:16:16.152Z,96289.78
2022-11-21T23:18:43.107Z,96277.94
2022-11-21T23:21:11.704Z,96269.72
2022-11-21T23:23:38.912Z,96277.66
2022-11-21T23:26:06.709Z,96271.91
2022-11-21T23:28:33.965Z,96265.97
2022-11-21T23:31:00.743Z,96264.53
2022-11-21T23:33:27.280Z,96262.72
2022-11-21T23:35:53.875Z,96258.22
2022-11-21T23:38:21.159Z,96249.97
2022-11-21T23:40:49.598Z,96243.66
2022-11-21T23:43:17.677Z,96259.34
2022-11-21T23:45:45.313Z,96262.06
2022-11-21T23:48:11.865Z,96257.97
2022-11-21T23:50:38.366Z,96267.59
2022-11-21T23:53:04.892Z,96257.19
2022-11-21T23:55:32.256Z,96263.59
2022-11-21T23:57:58.749Z,96246.38
